KVRB/VRB METAR and TAF weather

Enter ICAO airport designator
Station Type Date Time Source
KVRB METAR 2021/03/01 08:53 UTC NOAA

KVRB 010853Z AUTO 17009KT 10SM CLR 22/20 A3007 RMK AO2 SLP180 T02220200 56014


Station Type Date Time Source
KVRB Decoded METAR 2021/03/01 08:53 UTC NOAA

VERO BEACH MUNICIPAL AIRPORT , FL, United States (KVRB) 27-39N 080-25W 10M
Mar 01, 2021 - 03:53 AM EST / 2021.03.01 0853 UTC
Wind: from the S (170 degrees) at 10 MPH (9 KT):0
Visibility: 10 mile(s):0
Sky conditions: clear
Temperature: 72.0 F (22.2 C)
Dew Point: 68.0 F (20.0 C)
Relative Humidity: 87%
Pressure (altimeter): 30.07 in. Hg (1018 hPa)
Pressure tendency: 0.04 inches (1.4 hPa) lower than three hours ago
ob: KVRB 010853Z AUTO 17009KT 10SM CLR 22/20 A3007 RMK AO2 SLP180 T02220200 56014
cycle: 9

Station Type Date Time Source
KVRB TAF 2021/03/01 06:42 UTC NOAA

TAF KVRB 010540Z 0106/0206 15009KT P6SM SCT030 SCT250
FM011400 18009KT P6SM SCT025 BKN250
FM012100 15012G17KT P6SM SCT040 BKN250
FM020200 18006KT P6SM BKN050 BKN250
FM020500 25005KT P6SM BKN050 BKN250

Example: see airport list